Skip Navigation Links Skip Navigation Links

Current Weather

Ottawa Muni, Ottawa, Kan.

For information only: do not use for flight planning or navigation.
Latest weather
Observation time Monday, October 18, 2021 2:55 PM CDT
Local time Monday, October 18, 2021 3:08 PM CDT
Flight conditions Visual Meteorological Conditions
Winds
Wind direction South (170°)
Wind speed 17 mph
Visibility 10 mi.
Sky condition
Ceiling unlimited
Sky clear
Temperature 75°F
Dewpoint 45°F
Altimeter 30.02 in.Hg
Derived measurements
Relative humidity 34%
Density altitude 2045 ft.
Remarks
Fully automated report.
Automated weather observing station with precipitation discriminator.
METAR KOWI 181955Z AUTO 17015KT 10SM CLR 24/07 A3002 RMK AO2

Settings

Location code

InnerDrive.Weather 4.0.6770.0 Release CLR 4.0.30319.42000
Copyright ©2018 Inner Drive Technology. All rights reserved. Portions Copyright ©1986-2018 David Braverman.

Find weather

Site navigation


Skip Navigation Links

Place info

Page info

PayPal - The safer, easier way to pay online!

Return home.

Copyright ©2021 Inner Drive Technology. Purveyors of fine, hand-crafted computer software. Page printed 2021-10-18T20:08:08 UTC.